Time;durP1;ratioP1;P1;durP2;ratioP2;P2;SDS_P1;SDS_P2;PMS_P1;PMS_P2;Temp;Humidity;BMP_temperature;BMP_pressure;BME280_temperature;BME280_humidity;BME280_pressure;Samples;Min_cycle;Max_cycle;Signal;HPM_P1;HPM_P2
2021/04/04 00:02:15;;;;;;;16.90;6.53;;;5.90;99.90;;;;;;5046386;28;20204;-75
2021/04/04 00:04:42;;;;;;;12.77;7.00;;;5.90;99.90;;;;;;5030843;28;20236;-78
2021/04/04 00:07:08;;;;;;;14.50;6.18;;;5.80;99.90;;;;;;5045629;28;20193;-75
2021/04/04 00:09:35;;;;;;;19.63;6.90;;;5.80;99.90;;;;;;5030037;28;20682;-76
2021/04/04 00:12:01;;;;;;;15.25;6.53;;;5.70;99.90;;;;;;5052358;28;20605;-77
2021/04/04 00:14:31;;;;;;;10.98;5.32;;;5.70;99.90;;;;;;5025031;28;20207;-77
2021/04/04 00:16:57;;;;;;;19.05;6.70;;;5.60;99.90;;;;;;5034224;28;20189;-77
2021/04/04 00:19:27;;;;;;;14.43;6.20;;;5.60;99.90;;;;;;5033422;28;20212;-74
2021/04/04 00:21:54;;;;;;;14.93;5.82;;;5.50;99.90;;;;;;5034585;28;20224;-75
2021/04/04 00:24:20;;;;;;;16.20;5.60;;;5.50;99.90;;;;;;5051150;28;20315;-77
2021/04/04 00:26:46;;;;;;;19.85;6.20;;;5.50;99.90;;;;;;5051479;28;20208;-77
2021/04/04 00:29:13;;;;;;;12.00;6.72;;;5.50;99.90;;;;;;5028162;28;20264;-76
2021/04/04 00:31:40;;;;;;;17.92;6.38;;;5.40;99.90;;;;;;5003798;28;20205;-76
2021/04/04 00:34:08;;;;;;;17.10;6.30;;;5.40;99.90;;;;;;5030508;28;20778;-76
2021/04/04 00:36:34;;;;;;;19.25;6.40;;;5.50;99.90;;;;;;5036948;28;20228;-75
2021/04/04 00:39:01;;;;;;;16.08;6.07;;;5.50;99.90;;;;;;5033945;28;20300;-75
2021/04/04 00:41:27;;;;;;;18.92;6.70;;;5.60;99.90;;;;;;5040403;28;20184;-75
2021/04/04 00:43:54;;;;;;;15.15;7.25;;;5.70;99.90;;;;;;5040350;28;20296;-77
2021/04/04 00:46:20;;;;;;;27.55;6.88;;;5.70;99.90;;;;;;5017639;28;20307;-75
2021/04/04 00:48:47;;;;;;;10.43;6.00;;;5.80;99.90;;;;;;5017449;28;20270;-77
2021/04/04 00:51:13;;;;;;;22.17;6.70;;;6.00;99.90;;;;;;5034465;28;20307;-76
2021/04/04 00:53:41;;;;;;;17.85;6.07;;;6.10;99.90;;;;;;5006239;28;20385;-75
2021/04/04 00:56:09;;;;;;;15.75;5.68;;;6.10;99.90;;;;;;5041557;28;20213;-75
2021/04/04 00:58:38;;;;;;;21.55;6.80;;;6.20;99.90;;;;;;5034023;28;20185;-77
2021/04/04 01:01:09;;;;;;;19.17;6.32;;;6.20;99.90;;;;;;5033252;28;20220;-74
2021/04/04 01:03:35;;;;;;;24.70;6.88;;;6.20;99.90;;;;;;5052087;28;20185;-76
2021/04/04 01:06:07;;;;;;;15.70;6.57;;;6.20;99.90;;;;;;5051239;28;20281;-77
2021/04/04 01:08:36;;;;;;;16.13;5.82;;;6.30;99.90;;;;;;5031221;28;20538;-75
2021/04/04 01:11:04;;;;;;;14.82;6.10;;;6.30;99.90;;;;;;5016860;28;20316;-76
2021/04/04 01:13:53;;;;;;;15.35;6.93;;;6.30;99.90;;;;;;5051485;28;20230;-75
2021/04/04 01:16:34;;;;;;;12.52;5.85;;;6.30;99.90;;;;;;5013861;28;20221;-76
2021/04/04 01:19:21;;;;;;;19.45;6.07;;;6.30;99.90;;;;;;5022757;28;20889;-76
2021/04/04 01:21:53;;;;;;;12.90;5.20;;;6.30;99.90;;;;;;5050834;28;20642;-76
2021/04/04 01:24:30;;;;;;;16.05;6.05;;;6.30;99.90;;;;;;5040844;28;20304;-75
2021/04/04 01:27:02;;;;;;;18.33;5.63;;;6.30;99.90;;;;;;5020084;28;20195;-75
2021/04/04 01:29:31;;;;;;;18.15;5.85;;;6.30;99.90;;;;;;5029285;28;20266;-76
2021/04/04 01:31:58;;;;;;;12.60;5.18;;;6.40;99.90;;;;;;5051625;28;20204;-74
2021/04/04 01:34:28;;;;;;;17.33;6.20;;;6.40;99.90;;;;;;5033334;28;20313;-76
2021/04/04 01:37:04;;;;;;;13.38;6.20;;;6.50;99.90;;;;;;5049446;28;20195;-75
2021/04/04 01:39:39;;;;;;;16.10;5.85;;;6.40;99.90;;;;;;5050248;28;20688;-77
2021/04/04 01:42:08;;;;;;;13.50;5.43;;;6.40;99.90;;;;;;5034118;28;20263;-76
2021/04/04 01:44:37;;;;;;;12.32;5.95;;;6.40;99.90;;;;;;5025505;28;20217;-76
2021/04/04 01:47:04;;;;;;;11.55;5.57;;;6.40;99.90;;;;;;5048790;28;20212;-75
2021/04/04 01:49:32;;;;;;;11.82;5.28;;;6.50;99.90;;;;;;5050448;28;20217;-76
2021/04/04 01:52:01;;;;;;;12.10;5.75;;;6.40;99.90;;;;;;5034156;28;20220;-77
2021/04/04 01:54:30;;;;;;;19.02;6.18;;;6.40;99.90;;;;;;5031248;28;20257;-77
2021/04/04 01:56:58;;;;;;;15.02;5.80;;;6.50;99.90;;;;;;5039831;28;20655;-75
2021/04/04 01:59:27;;;;;;;13.10;5.47;;;6.50;99.90;;;;;;5034101;28;20204;-76
2021/04/04 02:01:54;;;;;;;14.80;4.40;;;6.40;99.90;;;;;;5051710;28;20181;-75
2021/04/04 02:04:22;;;;;;;11.30;5.13;;;6.40;99.90;;;;;;5043567;28;20217;-75
2021/04/04 02:06:50;;;;;;;15.38;5.38;;;6.40;99.90;;;;;;5040339;28;20292;-75
2021/04/04 02:09:17;;;;;;;16.02;6.53;;;6.40;99.90;;;;;;5016827;28;20251;-75
2021/04/04 02:11:49;;;;;;;20.40;5.15;;;6.40;99.90;;;;;;5040363;28;20287;-75
2021/04/04 02:14:19;;;;;;;12.07;5.78;;;6.40;99.90;;;;;;5050184;28;20217;-75
2021/04/04 02:16:50;;;;;;;11.32;6.10;;;6.40;99.90;;;;;;5050503;28;20598;-75
2021/04/04 02:19:19;;;;;;;17.40;6.55;;;6.30;99.90;;;;;;5050053;28;20221;-76
2021/04/04 02:21:51;;;;;;;19.30;7.18;;;6.30;99.90;;;;;;5050952;28;20573;-76
2021/04/04 02:24:21;;;;;;;11.25;5.47;;;6.30;99.90;;;;;;5045902;28;20258;-76
2021/04/04 02:26:49;;;;;;;18.38;5.72;;;6.30;99.90;;;;;;5035468;28;20757;-76
2021/04/04 02:29:16;;;;;;;8.15;4.88;;;6.30;99.90;;;;;;5048289;28;20279;-75
2021/04/04 02:32:08;;;;;;;16.67;5.35;;;6.30;99.90;;;;;;5018894;28;20211;-76
2021/04/04 02:34:40;;;;;;;13.38;5.50;;;6.30;99.90;;;;;;5035758;28;20224;-76
2021/04/04 02:37:11;;;;;;;14.82;6.22;;;6.20;99.90;;;;;;5053487;28;20173;-75
2021/04/04 02:39:45;;;;;;;22.67;5.80;;;6.30;99.90;;;;;;5049732;28;20218;-75
2021/04/04 02:42:12;;;;;;;15.98;8.52;;;6.30;99.90;;;;;;5053166;28;20202;-75
2021/04/04 02:44:40;;;;;;;14.20;5.28;;;6.30;99.90;;;;;;5044013;28;20227;-75
2021/04/04 02:47:10;;;;;;;12.25;6.05;;;6.30;99.90;;;;;;5046307;28;20666;-75
2021/04/04 02:49:37;;;;;;;22.45;6.40;;;6.20;99.90;;;;;;5015876;28;20639;-76
2021/04/04 02:52:07;;;;;;;16.63;5.60;;;6.30;99.90;;;;;;5047015;28;20262;-74
2021/04/04 02:54:37;;;;;;;12.02;5.80;;;6.30;99.90;;;;;;5043750;28;20316;-79
2021/04/04 02:57:05;;;;;;;15.15;6.00;;;6.20;99.90;;;;;;5045974;28;20212;-75
2021/04/04 02:59:47;;;;;;;23.38;7.10;;;6.30;99.90;;;;;;5047307;28;20221;-77
2021/04/04 03:02:17;;;;;;;15.80;5.85;;;6.20;99.90;;;;;;5053749;28;20267;-73
2021/04/04 03:04:48;;;;;;;13.07;5.50;;;6.20;99.90;;;;;;5052908;28;20305;-75
2021/04/04 03:07:18;;;;;;;11.90;5.68;;;6.20;99.90;;;;;;5053906;28;20203;-75
2021/04/04 03:09:47;;;;;;;14.23;6.05;;;6.20;99.90;;;;;;5024162;28;20743;-75
2021/04/04 03:12:15;;;;;;;12.45;5.88;;;6.30;99.90;;;;;;5048473;28;20230;-76
2021/04/04 03:14:44;;;;;;;16.05;6.40;;;6.30;99.90;;;;;;5044742;28;20248;-75
2021/04/04 03:17:12;;;;;;;19.20;6.82;;;6.20;99.90;;;;;;5033986;28;20547;-75
2021/04/04 03:19:44;;;;;;;10.15;6.50;;;6.20;99.90;;;;;;5046362;28;20296;-77
2021/04/04 03:22:13;;;;;;;13.15;6.18;;;6.10;99.90;;;;;;5035875;28;20315;-75
2021/04/04 03:24:41;;;;;;;20.95;6.82;;;6.10;99.90;;;;;;5032490;28;20225;-75
2021/04/04 03:27:09;;;;;;;15.63;6.75;;;6.10;99.90;;;;;;5035999;28;20271;-75
2021/04/04 03:29:36;;;;;;;22.15;6.03;;;6.20;99.90;;;;;;5044322;28;20299;-75
2021/04/04 03:32:02;;;;;;;15.23;6.75;;;6.20;99.90;;;;;;5050541;28;20577;-74
2021/04/04 03:34:30;;;;;;;16.30;6.20;;;6.20;99.90;;;;;;5053066;28;20694;-77
2021/04/04 03:36:57;;;;;;;18.73;6.95;;;6.20;99.90;;;;;;5043735;28;20626;-75
2021/04/04 03:39:25;;;;;;;17.08;6.45;;;6.20;99.90;;;;;;5047086;28;20216;-75
2021/04/04 03:41:53;;;;;;;17.55;6.22;;;6.20;99.90;;;;;;5035548;28;20704;-74
2021/04/04 03:44:26;;;;;;;12.07;7.40;;;6.20;99.90;;;;;;5049712;28;20291;-74
2021/04/04 03:46:56;;;;;;;16.95;6.85;;;6.20;99.90;;;;;;5052585;28;20188;-74
2021/04/04 03:49:24;;;;;;;18.15;6.30;;;6.20;99.90;;;;;;5030392;28;20309;-75
2021/04/04 03:51:56;;;;;;;12.18;6.07;;;6.20;99.90;;;;;;5040026;28;20211;-74
2021/04/04 03:54:26;;;;;;;18.40;6.95;;;6.20;99.90;;;;;;5043659;28;20223;-76
2021/04/04 03:56:55;;;;;;;24.27;7.40;;;6.20;99.90;;;;;;5051011;28;20223;-76
2021/04/04 03:59:23;;;;;;;19.98;7.65;;;6.10;99.90;;;;;;5045608;28;20316;-76
2021/04/04 04:01:50;;;;;;;18.90;7.75;;;6.10;99.90;;;;;;5042258;28;20272;-76
2021/04/04 04:04:19;;;;;;;18.10;7.75;;;6.10;99.90;;;;;;5034973;28;20210;-75
2021/04/04 04:06:47;;;;;;;14.50;6.93;;;6.10;99.90;;;;;;5049439;28;20205;-75
2021/04/04 04:09:15;;;;;;;17.65;7.20;;;6.10;99.90;;;;;;5036526;28;20270;-77
2021/04/04 04:11:45;;;;;;;15.68;7.10;;;6.10;99.90;;;;;;5034772;28;20315;-75
2021/04/04 04:14:14;;;;;;;14.23;7.32;;;6.10;99.90;;;;;;5037390;28;20235;-75
2021/04/04 04:16:42;;;;;;;10.07;6.40;;;6.10;99.90;;;;;;5042057;28;20202;-75
2021/04/04 04:19:10;;;;;;;19.33;7.90;;;6.10;99.90;;;;;;5033572;28;20315;-75
2021/04/04 04:21:40;;;;;;;14.65;6.35;;;6.10;99.90;;;;;;5048297;28;20195;-75
2021/04/04 04:24:11;;;;;;;16.27;7.35;;;6.10;99.90;;;;;;5043415;28;20988;-77
2021/04/04 04:26:48;;;;;;;21.23;6.80;;;6.10;99.90;;;;;;5034030;28;20239;-76
2021/04/04 04:29:16;;;;;;;12.45;6.18;;;6.10;99.90;;;;;;5036474;28;20296;-74
2021/04/04 04:31:47;;;;;;;13.32;6.57;;;6.20;99.90;;;;;;5016065;28;20552;-74
2021/04/04 04:34:15;;;;;;;23.02;6.30;;;6.20;99.90;;;;;;5034037;28;20220;-75
2021/04/04 04:36:43;;;;;;;10.65;5.68;;;6.20;99.90;;;;;;5052107;28;20232;-75
2021/04/04 04:39:11;;;;;;;25.90;7.00;;;6.10;99.90;;;;;;5043762;28;20229;-76
2021/04/04 04:41:50;;;;;;;15.23;5.95;;;6.20;99.90;;;;;;5031350;28;20196;-76
2021/04/04 04:44:25;;;;;;;18.50;6.95;;;6.20;99.90;;;;;;5030809;28;20624;-75
2021/04/04 04:46:52;;;;;;;14.65;6.15;;;6.20;99.90;;;;;;5044083;28;20284;-75
2021/04/04 04:49:18;;;;;;;14.05;6.88;;;6.20;99.90;;;;;;5050637;28;20213;-75
2021/04/04 04:51:47;;;;;;;14.43;6.57;;;6.20;99.90;;;;;;5052167;28;20293;-75
2021/04/04 04:54:14;;;;;;;17.65;7.07;;;6.10;99.90;;;;;;5029267;28;20216;-76
2021/04/04 04:56:41;;;;;;;15.68;6.90;;;6.20;99.90;;;;;;5034441;28;20246;-77
2021/04/04 04:59:09;;;;;;;13.18;6.85;;;6.10;99.90;;;;;;5050520;28;20216;-76
2021/04/04 05:01:46;;;;;;;16.23;6.25;;;6.10;99.90;;;;;;5051924;28;20242;-77
2021/04/04 05:04:14;;;;;;;15.35;6.03;;;6.20;99.90;;;;;;5014056;28;20221;-76
2021/04/04 05:06:48;;;;;;;12.75;6.25;;;6.20;99.90;;;;;;5045007;28;20291;-75
2021/04/04 05:09:15;;;;;;;13.23;7.22;;;6.20;99.90;;;;;;5040826;28;20252;-76
2021/04/04 05:11:48;;;;;;;16.02;6.82;;;6.20;99.90;;;;;;5046080;28;20208;-78
2021/04/04 05:14:18;;;;;;;15.30;7.03;;;6.20;99.90;;;;;;5028146;28;20205;-75
2021/04/04 05:16:52;;;;;;;19.95;6.75;;;6.20;99.90;;;;;;5030328;28;20205;-77
2021/04/04 05:19:19;;;;;;;15.02;6.80;;;6.20;99.90;;;;;;5041079;28;20219;-75
2021/04/04 05:21:47;;;;;;;21.13;6.82;;;6.20;99.90;;;;;;5026614;28;20682;-75
2021/04/04 05:24:18;;;;;;;24.70;7.68;;;6.10;99.90;;;;;;5033226;28;20563;-77
2021/04/04 05:26:46;;;;;;;18.40;5.88;;;6.20;99.90;;;;;;5051117;28;20204;-74
2021/04/04 05:29:17;;;;;;;15.88;6.32;;;6.20;99.90;;;;;;5031972;28;20621;-75
2021/04/04 05:31:57;;;;;;;12.52;5.80;;;6.20;99.90;;;;;;5033528;28;20215;-74
2021/04/04 05:34:28;;;;;;;15.40;7.15;;;6.30;99.90;;;;;;5033321;28;20300;-75
2021/04/04 05:37:08;;;;;;;12.00;6.10;;;6.20;99.90;;;;;;5032787;28;20191;-75
2021/04/04 05:39:37;;;;;;;16.10;7.20;;;6.20;99.90;;;;;;5038603;28;20216;-75
2021/04/04 05:42:09;;;;;;;10.07;6.43;;;6.20;99.90;;;;;;5032931;28;20192;-76
2021/04/04 05:45:08;;;;;;;14.70;6.70;;;6.20;99.90;;;;;;5049659;28;20289;-75
2021/04/04 05:47:52;;;;;;;14.18;8.15;;;6.20;99.90;;;;;;5033998;28;20200;-75
2021/04/04 05:50:37;;;;;;;15.43;5.70;;;6.20;99.90;;;;;;5050742;28;20216;-76
2021/04/04 05:53:30;;;;;;;11.00;5.40;;;6.20;99.90;;;;;;5033802;28;20682;-76
2021/04/04 05:56:23;;;;;;;15.68;6.68;;;6.20;99.90;;;;;;5047717;28;20208;-75
2021/04/04 05:59:03;;;;;;;19.60;8.00;;;6.20;99.90;;;;;;5029658;28;20643;-75
2021/04/04 06:01:53;;;;;;;19.67;6.32;;;6.30;99.90;;;;;;5036894;28;20681;-75
2021/04/04 06:04:48;;;;;;;17.77;7.15;;;6.20;99.90;;;;;;5050826;28;20217;-74
2021/04/04 06:07:57;;;;;;;15.30;5.25;;;6.20;99.90;;;;;;5009034;28;20201;-75
2021/04/04 06:10:51;;;;;;;14.00;6.65;;;6.20;99.90;;;;;;5021166;28;20311;-75
2021/04/04 06:13:27;;;;;;;15.45;7.25;;;6.30;99.90;;;;;;5053563;28;20625;-74
2021/04/04 06:16:09;;;;;;;14.43;6.57;;;6.30;99.90;;;;;;5047183;28;20573;-74
2021/04/04 06:18:48;;;;;;;22.20;7.63;;;6.30;99.90;;;;;;5037045;28;20628;-75
2021/04/04 06:21:54;;;;;;;18.83;6.95;;;6.30;99.90;;;;;;5054655;28;20240;-75
2021/04/04 06:24:37;;;;;;;9.88;6.05;;;6.30;99.90;;;;;;5038205;28;20221;-75
2021/04/04 06:27:20;;;;;;;16.02;6.88;;;6.30;99.90;;;;;;5021020;28;20586;-74
2021/04/04 06:30:01;;;;;;;12.93;6.72;;;6.30;99.90;;;;;;5047910;28;20216;-75
2021/04/04 06:32:51;;;;;;;14.40;6.47;;;6.40;99.90;;;;;;5053959;28;20239;-75
2021/04/04 06:35:30;;;;;;;9.15;5.90;;;6.40;99.90;;;;;;5053143;28;20220;-75
2021/04/04 06:38:07;;;;;;;17.63;6.70;;;6.30;99.90;;;;;;5048023;28;20551;-74
2021/04/04 06:41:05;;;;;;;19.27;7.13;;;6.30;99.90;;;;;;5034022;28;20244;-76
2021/04/04 06:43:51;;;;;;;18.42;6.18;;;6.30;99.90;;;;;;5038241;28;20671;-76
2021/04/04 06:46:45;;;;;;;16.08;6.55;;;6.30;99.90;;;;;;5035813;28;20269;-75
2021/04/04 06:49:36;;;;;;;12.25;6.22;;;6.30;99.90;;;;;;5053319;28;20621;-75
2021/04/04 06:52:36;;;;;;;19.38;7.22;;;6.40;99.90;;;;;;5041176;28;20196;-75
2021/04/04 06:55:07;;;;;;;10.80;6.32;;;6.40;99.90;;;;;;5024952;28;20307;-75
2021/04/04 06:57:37;;;;;;;12.63;7.25;;;6.40;99.90;;;;;;5048989;28;20186;-75
2021/04/04 07:00:06;;;;;;;16.30;7.10;;;6.50;99.90;;;;;;5046330;28;20294;-75
2021/04/04 07:02:55;;;;;;;8.88;5.57;;;6.50;99.90;;;;;;5032637;28;20918;-74
2021/04/04 07:05:33;;;;;;;14.45;6.57;;;6.50;99.80;;;;;;5011146;28;20238;-74
2021/04/04 07:08:50;;;;;;;20.50;6.70;;;6.50;99.90;;;;;;5041854;28;20190;-75
2021/04/04 07:11:35;;;;;;;12.70;5.80;;;6.50;99.80;;;;;;4988129;28;20266;-74
2021/04/04 07:14:28;;;;;;;15.65;6.50;;;6.50;99.60;;;;;;4990871;28;20289;-77
2021/04/04 07:17:44;;;;;;;23.40;6.65;;;6.50;99.60;;;;;;5038880;28;20222;-75
2021/04/04 07:20:26;;;;;;;13.35;6.70;;;6.50;99.90;;;;;;5051369;28;20270;-79
2021/04/04 07:23:28;;;;;;;12.75;5.93;;;6.50;99.20;;;;;;5025808;28;20676;-76
2021/04/04 07:26:25;;;;;;;29.77;7.72;;;6.60;99.00;;;;;;5019161;28;20230;-74
2021/04/04 07:29:23;;;;;;;12.50;6.90;;;6.60;99.00;;;;;;5002870;28;20242;-75
2021/04/04 07:31:59;;;;;;;13.07;5.93;;;6.60;99.20;;;;;;5051333;28;20258;-77
2021/04/04 07:34:35;;;;;;;14.02;6.40;;;6.70;98.90;;;;;;5035127;28;20218;-73
2021/04/04 07:37:35;;;;;;;12.13;6.82;;;6.70;99.00;;;;;;5035078;28;20189;-74
2021/04/04 07:40:14;;;;;;;8.95;5.72;;;6.60;98.00;;;;;;5012658;28;20220;-75
2021/04/04 07:43:06;;;;;;;10.98;5.50;;;6.60;97.80;;;;;;5052728;28;20223;-75
2021/04/04 07:46:01;;;;;;;14.27;5.68;;;6.60;98.20;;;;;;5043880;28;20225;-74
2021/04/04 07:48:46;;;;;;;9.75;5.95;;;6.60;97.60;;;;;;5042503;28;20578;-74
2021/04/04 07:51:23;;;;;;;18.20;7.10;;;6.70;97.10;;;;;;5054302;28;20246;-75
2021/04/04 07:54:11;;;;;;;13.52;5.97;;;6.70;97.10;;;;;;5040945;28;20698;-76
2021/04/04 07:57:04;;;;;;;12.30;5.30;;;6.70;97.50;;;;;;5046320;28;20303;-75
2021/04/04 07:59:35;;;;;;;9.75;5.18;;;6.70;97.50;;;;;;5014689;28;20223;-75
2021/04/04 08:02:18;;;;;;;11.18;5.20;;;6.70;97.60;;;;;;5035367;28;20247;-76
2021/04/04 08:04:53;;;;;;;16.48;7.43;;;6.70;96.50;;;;;;5034011;28;20212;-75
2021/04/04 08:07:41;;;;;;;16.88;5.95;;;6.80;96.40;;;;;;5051801;28;20176;-76
2021/04/04 08:10:09;;;;;;;15.18;6.20;;;6.80;96.30;;;;;;5049604;28;20594;-75
2021/04/04 08:12:53;;;;;;;22.40;6.40;;;6.70;95.60;;;;;;5051015;28;20254;-75
2021/04/04 08:15:37;;;;;;;10.18;5.70;;;6.70;95.00;;;;;;5050532;28;20690;-76
2021/04/04 08:18:15;;;;;;;8.60;5.18;;;6.80;95.40;;;;;;5024921;28;20185;-75
2021/04/04 08:20:50;;;;;;;13.07;6.18;;;6.80;95.00;;;;;;5033220;28;20242;-76
2021/04/04 08:23:29;;;;;;;13.57;4.82;;;6.80;94.80;;;;;;5050658;28;20554;-75
2021/04/04 08:26:04;;;;;;;11.43;4.70;;;6.80;95.40;;;;;;5008657;28;20396;-75
2021/04/04 08:28:41;;;;;;;8.35;4.55;;;6.90;94.40;;;;;;5034409;28;20184;-75
2021/04/04 08:31:14;;;;;;;13.60;5.82;;;7.00;94.50;;;;;;5049578;28;20216;-75
2021/04/04 08:34:06;;;;;;;9.07;5.22;;;7.00;94.40;;;;;;5052172;28;20215;-77
2021/04/04 08:36:56;;;;;;;12.48;4.95;;;6.90;94.30;;;;;;5046920;28;20255;-77
2021/04/04 08:39:30;;;;;;;11.98;4.70;;;6.90;94.70;;;;;;5032313;28;20212;-75
2021/04/04 08:42:05;;;;;;;13.45;4.85;;;6.90;95.00;;;;;;5039862;28;20838;-75
2021/04/04 08:44:45;;;;;;;11.63;5.10;;;7.00;94.00;;;;;;5017878;28;20307;-77
2021/04/04 08:47:30;;;;;;;11.25;7.22;;;6.90;94.30;;;;;;5025022;28;20648;-75
2021/04/04 08:50:11;;;;;;;11.82;5.20;;;6.90;94.40;;;;;;5051207;28;20216;-76
2021/04/04 08:52:44;;;;;;;8.60;4.35;;;6.90;95.40;;;;;;5039168;28;20311;-74
2021/04/04 08:55:15;;;;;;;6.40;4.22;;;6.90;93.20;;;;;;5024370;28;20718;-75
2021/04/04 08:57:47;;;;;;;9.77;4.43;;;7.00;93.50;;;;;;5041454;28;20725;-75
2021/04/04 09:00:15;;;;;;;12.15;4.75;;;7.00;94.10;;;;;;5016274;28;20205;-76
2021/04/04 09:03:05;;;;;;;9.77;4.75;;;7.10;94.30;;;;;;5016418;28;20193;-75
2021/04/04 09:05:36;;;;;;;11.38;4.13;;;7.10;94.70;;;;;;5035082;28;20223;-75
2021/04/04 09:08:12;;;;;;;8.68;4.35;;;7.10;93.70;;;;;;5046869;28;20213;-74
2021/04/04 09:10:47;;;;;;;9.77;4.32;;;7.10;93.80;;;;;;5024510;28;20270;-75
2021/04/04 09:13:16;;;;;;;10.13;4.70;;;7.00;93.70;;;;;;5033637;28;20266;-75
2021/04/04 09:15:51;;;;;;;9.60;4.30;;;7.00;94.20;;;;;;5048382;28;20298;-74
2021/04/04 09:18:19;;;;;;;11.02;4.25;;;7.10;93.60;;;;;;5034162;28;20187;-74
2021/04/04 09:21:08;;;;;;;9.13;4.40;;;7.10;93.20;;;;;;5034586;28;20613;-75
2021/04/04 09:23:37;;;;;;;9.30;5.07;;;7.00;93.50;;;;;;5049027;28;20706;-76
2021/04/04 09:26:09;;;;;;;8.70;4.28;;;7.00;94.00;;;;;;5026824;28;20767;-75
2021/04/04 09:28:45;;;;;;;11.25;5.72;;;7.00;94.00;;;;;;5038119;28;20195;-75
2021/04/04 09:31:33;;;;;;;14.07;5.45;;;6.90;94.60;;;;;;5035575;28;20291;-75
2021/04/04 09:34:11;;;;;;;12.48;5.25;;;7.00;94.50;;;;;;5004939;28;20254;-74
2021/04/04 09:36:46;;;;;;;13.20;5.00;;;6.90;94.30;;;;;;5047385;28;20210;-75
2021/04/04 09:39:26;;;;;;;14.25;5.30;;;7.00;94.00;;;;;;5031136;28;20216;-74
2021/04/04 09:41:54;;;;;;;8.63;5.60;;;6.90;93.50;;;;;;5042497;28;20193;-74
2021/04/04 09:44:33;;;;;;;15.93;6.63;;;6.90;93.90;;;;;;5029128;28;20239;-75
2021/04/04 09:47:08;;;;;;;7.70;5.40;;;6.90;94.30;;;;;;5048198;28;20191;-76
2021/04/04 09:49:48;;;;;;;10.10;5.80;;;6.90;94.90;;;;;;5036376;28;20212;-75
2021/04/04 09:52:28;;;;;;;16.20;7.28;;;7.10;94.60;;;;;;5052573;28;20704;-75
2021/04/04 09:55:11;;;;;;;11.18;6.32;;;7.20;94.50;;;;;;5054462;28;20224;-75
2021/04/04 09:57:56;;;;;;;8.52;5.38;;;7.20;93.60;;;;;;5036612;28;20239;-74
2021/04/04 10:00:31;;;;;;;13.73;6.10;;;7.30;93.90;;;;;;5049873;28;20216;-79
2021/04/04 10:03:08;;;;;;;8.63;4.80;;;7.30;92.80;;;;;;5038589;28;20215;-75
2021/04/04 10:05:43;;;;;;;8.80;5.28;;;7.30;92.50;;;;;;5055989;28;20574;-74
2021/04/04 10:08:10;;;;;;;11.73;6.22;;;7.30;92.30;;;;;;5045277;28;20192;-75
2021/04/04 10:10:39;;;;;;;11.18;6.25;;;7.30;92.70;;;;;;5047486;28;20254;-75
2021/04/04 10:13:07;;;;;;;10.55;6.13;;;7.30;93.30;;;;;;5046797;28;20302;-75
2021/04/04 10:15:43;;;;;;;12.05;5.25;;;7.30;93.10;;;;;;5028358;28;20292;-76
2021/04/04 10:18:26;;;;;;;7.82;4.93;;;7.40;93.30;;;;;;5055872;28;20550;-74
2021/04/04 10:21:07;;;;;;;10.02;5.47;;;7.50;93.40;;;;;;5037082;28;20216;-77
2021/04/04 10:23:35;;;;;;;9.30;5.63;;;7.60;92.10;;;;;;5048390;28;20803;-77
2021/04/04 10:26:09;;;;;;;18.42;6.03;;;7.50;92.90;;;;;;5041163;28;20235;-76
2021/04/04 10:28:51;;;;;;;10.75;5.40;;;7.50;93.60;;;;;;5035764;28;20192;-74
2021/04/04 10:31:19;;;;;;;12.07;5.90;;;7.60;92.20;;;;;;5032449;28;20216;-76
2021/04/04 10:33:56;;;;;;;9.35;5.25;;;7.60;92.40;;;;;;5037607;28;20208;-75
2021/04/04 10:36:28;;;;;;;8.75;5.47;;;7.70;92.80;;;;;;5042950;28;20212;-75
2021/04/04 10:38:56;;;;;;;8.90;6.10;;;7.70;92.90;;;;;;5027801;28;20206;-76
2021/04/04 10:41:29;;;;;;;11.57;5.65;;;7.70;92.70;;;;;;5036539;28;20879;-77
2021/04/04 10:43:55;;;;;;;11.20;5.43;;;7.70;92.80;;;;;;5050713;28;20201;-77
2021/04/04 10:46:33;;;;;;;6.78;4.97;;;7.80;91.10;;;;;;5048698;28;20259;-75
2021/04/04 10:49:02;;;;;;;13.50;5.63;;;7.70;91.80;;;;;;5016410;28;20220;-77
2021/04/04 10:51:30;;;;;;;13.55;6.18;;;7.80;91.60;;;;;;5018772;28;20188;-75
2021/04/04 10:53:59;;;;;;;12.35;5.70;;;7.80;91.00;;;;;;5035998;28;20219;-77
2021/04/04 10:56:29;;;;;;;10.45;5.30;;;7.90;91.10;;;;;;5052618;28;20213;-77
2021/04/04 10:59:01;;;;;;;14.50;4.75;;;7.90;91.40;;;;;;5049193;28;20204;-73
2021/04/04 11:01:32;;;;;;;10.93;5.95;;;7.80;91.30;;;;;;5016235;28;20215;-76
2021/04/04 11:03:59;;;;;;;9.45;5.10;;;7.80;92.20;;;;;;5032266;28;20263;-76
2021/04/04 11:06:27;;;;;;;11.63;5.88;;;7.80;92.10;;;;;;5033018;28;20212;-77
2021/04/04 11:08:55;;;;;;;9.93;5.13;;;7.90;91.90;;;;;;4999622;28;20292;-74
2021/04/04 11:11:22;;;;;;;11.88;6.10;;;7.90;92.30;;;;;;5032563;28;20185;-75
2021/04/04 11:13:53;;;;;;;9.80;5.15;;;7.90;91.90;;;;;;5021357;28;20238;-75
2021/04/04 11:16:27;;;;;;;10.18;4.65;;;7.90;92.40;;;;;;5015990;28;20212;-74
2021/04/04 11:18:58;;;;;;;11.38;5.47;;;7.90;92.60;;;;;;5036205;28;20183;-75
2021/04/04 11:21:44;;;;;;;10.38;5.70;;;8.00;91.60;;;;;;5019576;28;20279;-75
2021/04/04 11:24:15;;;;;;;10.18;4.72;;;8.00;92.00;;;;;;5052282;28;20239;-74
2021/04/04 11:26:53;;;;;;;15.75;5.50;;;8.00;91.80;;;;;;5053328;28;20616;-74
2021/04/04 11:29:25;;;;;;;7.60;5.43;;;8.20;90.50;;;;;;5045874;28;20280;-74
2021/04/04 11:31:57;;;;;;;14.25;5.63;;;8.30;90.40;;;;;;5016097;28;20236;-75
2021/04/04 11:34:33;;;;;;;11.15;5.15;;;8.30;90.20;;;;;;5041683;28;20219;-74
2021/04/04 11:37:26;;;;;;;15.68;5.82;;;8.30;90.40;;;;;;5046786;28;20598;-73
2021/04/04 11:40:15;;;;;;;9.88;6.38;;;8.30;90.20;;;;;;5020023;28;20228;-76
2021/04/04 11:42:42;;;;;;;10.15;6.10;;;8.20;90.30;;;;;;5053419;28;20263;-74
2021/04/04 11:45:10;;;;;;;8.88;5.60;;;8.20;90.30;;;;;;5046129;28;20694;-75
2021/04/04 11:47:36;;;;;;;9.50;5.55;;;8.30;90.50;;;;;;5021960;28;20287;-75
2021/04/04 11:50:23;;;;;;;8.98;5.18;;;8.30;90.20;;;;;;5051965;28;20228;-75
2021/04/04 11:52:51;;;;;;;10.13;5.43;;;8.30;90.30;;;;;;5053142;28;20543;-74
2021/04/04 11:55:19;;;;;;;10.73;5.43;;;8.30;90.50;;;;;;5051588;28;20212;-73
2021/04/04 11:57:47;;;;;;;8.43;5.65;;;8.30;90.40;;;;;;5028130;28;20272;-76
2021/04/04 12:00:18;;;;;;;7.75;6.05;;;8.30;90.60;;;;;;5043028;28;20224;-74
2021/04/04 12:03:04;;;;;;;11.18;6.10;;;8.30;90.50;;;;;;5033946;28;20696;-76
2021/04/04 12:05:39;;;;;;;9.60;6.03;;;8.30;90.70;;;;;;5031551;28;20307;-74
2021/04/04 12:08:06;;;;;;;7.95;5.22;;;8.30;91.40;;;;;;5032353;28;20306;-74
2021/04/04 12:10:35;;;;;;;9.70;6.05;;;8.40;91.80;;;;;;5053028;28;20725;-75
2021/04/04 12:13:03;;;;;;;10.63;5.53;;;8.40;91.20;;;;;;5034160;28;20235;-74
2021/04/04 12:15:30;;;;;;;11.13;6.38;;;8.40;91.70;;;;;;5008362;28;20690;-74
2021/04/04 12:17:58;;;;;;;11.63;5.55;;;8.40;90.70;;;;;;5052220;28;20260;-76
2021/04/04 12:20:28;;;;;;;14.80;6.30;;;8.50;91.00;;;;;;5017379;28;20296;-74
2021/04/04 12:22:55;;;;;;;8.35;5.10;;;8.60;89.30;;;;;;5035006;28;20550;-76
2021/04/04 12:25:26;;;;;;;11.73;5.90;;;8.70;90.00;;;;;;5040521;28;20303;-74
2021/04/04 12:27:58;;;;;;;11.90;5.93;;;8.70;90.20;;;;;;5034456;28;20650;-74
2021/04/04 12:30:34;;;;;;;9.48;5.90;;;8.70;90.40;;;;;;5041812;28;20235;-76
2021/04/04 12:33:02;;;;;;;10.73;5.80;;;8.80;90.50;;;;;;5050414;28;20566;-75
2021/04/04 12:35:29;;;;;;;9.88;6.25;;;8.80;90.20;;;;;;5051200;28;20686;-74
2021/04/04 12:37:56;;;;;;;11.35;5.90;;;8.80;90.00;;;;;;5028259;28;20181;-74
2021/04/04 12:40:23;;;;;;;11.40;6.05;;;8.90;90.20;;;;;;5051390;28;20213;-74
2021/04/04 12:42:58;;;;;;;11.02;6.53;;;8.90;89.80;;;;;;5034082;28;20189;-74
2021/04/04 12:45:30;;;;;;;10.30;7.18;;;8.90;89.30;;;;;;5033630;28;20235;-74
2021/04/04 12:47:56;;;;;;;12.35;6.47;;;8.80;88.40;;;;;;5048838;28;20185;-74
2021/04/04 12:50:28;;;;;;;13.70;7.53;;;8.80;89.90;;;;;;5049672;28;20216;-74
2021/04/04 12:52:55;;;;;;;12.75;6.80;;;8.80;89.20;;;;;;5029027;28;20264;-77
2021/04/04 12:55:22;;;;;;;10.68;6.18;;;8.80;89.80;;;;;;5050554;28;20216;-76
2021/04/04 12:57:55;;;;;;;16.77;7.65;;;8.80;89.30;;;;;;5018069;28;20663;-75
2021/04/04 13:00:26;;;;;;;11.77;6.30;;;8.80;89.10;;;;;;5032340;28;20209;-74
2021/04/04 13:02:54;;;;;;;13.18;7.38;;;8.80;88.70;;;;;;5032745;28;20192;-74
2021/04/04 13:05:22;;;;;;;13.27;7.85;;;8.80;89.60;;;;;;5050922;28;20219;-75
2021/04/04 13:07:49;;;;;;;20.48;8.50;;;8.80;90.00;;;;;;5030445;28;20243;-75
2021/04/04 13:10:16;;;;;;;13.00;7.25;;;8.80;90.30;;;;;;5038372;28;20208;-74
2021/04/04 13:12:43;;;;;;;13.25;6.82;;;8.90;90.40;;;;;;5031876;28;20211;-76
2021/04/04 13:15:27;;;;;;;9.85;6.75;;;8.90;90.10;;;;;;5044514;28;20694;-74
2021/04/04 13:17:54;;;;;;;12.45;5.90;;;9.00;87.60;;;;;;5027834;28;20261;-76
2021/04/04 13:20:23;;;;;;;9.15;6.90;;;9.10;88.00;;;;;;5039634;28;20227;-73
2021/04/04 13:22:51;;;;;;;10.45;6.40;;;9.00;88.20;;;;;;5032343;28;20184;-74
2021/04/04 13:25:18;;;;;;;6.10;5.47;;;9.10;86.10;;;;;;5032341;28;20240;-75